首页
METAR-TAF:

METAR-TAF

机场 :

Pensacola Regional Airport

彭萨科拉, 佛罗里达州, 美国

纬度: 30-28-41N, 经度: 087-11-13W, 海拔: 36米

当前天气观测

该预报发布于36分钟前的13:53 UTC
风速3节,风向南转南东
温度 9°C
湿度 93%
气压 1021 hPa
能見度: 9.7公里
阴天层高于11000英尺
轻雾

METAR: KPNS 261353Z 16003KT 6SM BR OVC110 09/08 A3015 RMK AO2 RAE41 SLP213 P0001 T00940078

时间: 08:29 (14:29 UTC)

预报

该预报发布于57分钟前的13:32 UTC
预报有效从26日的 14点(UTC)到 27日的 12点(UTC)
风速节,风向
能見度: 10公里
少量云层高于8000英尺
阴天层高于10000英尺
小雨
从 26日的 1900点(UTC)
风速5节,风向东转东南
能見度: 9.7公里
阴天层高于3000英尺
小雨
从 27日的 0000点(UTC)
风速8节,风向东转东南
能見度: 9.7公里
阴天层高于900英尺
小雨
从 27日的 0600点(UTC)
风速5节,风向东转东北
能見度: 6.4公里
阴天层高于700英尺
小雨, 轻雾
短暂存在
从 27日的 08点(UTC)到 27日的 12点(UTC)
能見度: 3.2公里
阴天层高于400英尺
小雨, 轻雾

TAF: KPNS 261332Z 2614/2712 00000KT P6SM -RA FEW080 OVC100 FM261900 12005KT 6SM -RA OVC030 FM270000 12008KT 6SM -RA OVC009 FM270600 07005KT 4SM -RA BR OVC007 TEMPO 2708/2712 2SM -RA BR OVC004

超过4000个机场的气象观测和天气预报(METAR&TAF报告)。

可查询的气象台以黄色和红色小点在地图上表示。

将鼠标移到小点上方,可查看气象台名称。

然后点击查看天气观测和预报。

如需切换地图:点击带黑十字的绿色按钮放大地图;点击带横线的绿色按钮缩小地图;或者点击绿色箭头查看邻近地区的地图。


METAR-TAF: